Time;durP1;ratioP1;P1;durP2;ratioP2;P2;SDS_P1;SDS_P2;PMS_P1;PMS_P2;Temp;Humidity;BMP_temperature;BMP_pressure;BME280_temperature;BME280_humidity;BME280_pressure;Samples;Min_cycle;Max_cycle;Signal;HPM_P1;HPM_P2
2021/04/09 00:02:06;;;;;;;7.93;6.33;;;;;;;3.32;75.81;100993.00;4952545;28;20225;-70
2021/04/09 00:04:35;;;;;;;10.57;7.17;;;;;;;3.46;74.90;100982.75;4947284;28;20186;-71
2021/04/09 00:07:00;;;;;;;9.80;6.90;;;;;;;3.39;75.05;100985.69;4939205;28;20224;-70
2021/04/09 00:09:28;;;;;;;9.17;6.80;;;;;;;3.34;75.32;100985.53;4951804;29;20211;-71
2021/04/09 00:11:54;;;;;;;9.93;6.77;;;;;;;3.42;75.68;100987.94;4933078;28;20230;-71
2021/04/09 00:14:22;;;;;;;9.10;6.63;;;;;;;3.47;74.95;100976.34;4934388;29;20187;-70
2021/04/09 00:16:50;;;;;;;9.30;7.07;;;;;;;3.46;75.14;100979.22;4949703;28;20238;-70
2021/04/09 00:19:21;;;;;;;8.43;6.90;;;;;;;3.65;74.83;100968.34;4934710;29;20195;-70
2021/04/09 00:21:47;;;;;;;8.00;6.93;;;;;;;3.44;75.12;100968.72;4933343;28;20273;-70
2021/04/09 00:24:13;;;;;;;7.73;6.93;;;;;;;3.54;74.70;100961.00;4934339;29;20607;-70
2021/04/09 00:26:38;;;;;;;9.40;6.87;;;;;;;3.47;73.98;100962.91;4949205;28;20309;-70
2021/04/09 00:29:04;;;;;;;9.80;6.53;;;;;;;3.45;75.28;100956.94;4934069;28;20223;-70
2021/04/09 00:31:30;;;;;;;8.43;7.40;;;;;;;3.38;74.54;100951.84;4936790;28;20229;-69
2021/04/09 00:33:58;;;;;;;9.60;6.80;;;;;;;3.55;73.83;100941.19;4941693;29;20571;-70
2021/04/09 00:36:25;;;;;;;10.40;8.20;;;;;;;3.49;74.03;100936.66;4945776;28;20226;-70
2021/04/09 00:38:51;;;;;;;9.53;6.77;;;;;;;3.56;73.73;100939.31;4956732;28;20730;-69
2021/04/09 00:41:17;;;;;;;10.47;6.90;;;;;;;3.53;73.43;100937.03;4973183;28;20226;-69
2021/04/09 00:43:43;;;;;;;7.60;6.80;;;;;;;3.57;73.29;100936.41;4939899;28;20197;-69
2021/04/09 00:46:09;;;;;;;8.40;7.00;;;;;;;3.81;71.90;100932.88;4973416;28;20331;-69
2021/04/09 00:48:35;;;;;;;10.13;7.30;;;;;;;3.76;71.88;100934.56;4956742;28;20358;-69
2021/04/09 00:51:03;;;;;;;7.80;6.77;;;;;;;3.76;71.63;100930.00;4956111;28;20236;-70
2021/04/09 00:53:29;;;;;;;7.83;7.00;;;;;;;3.83;72.10;100928.09;4972168;28;20186;-70
2021/04/09 00:55:55;;;;;;;9.03;7.17;;;;;;;3.86;71.47;100922.25;4955972;28;20237;-69
2021/04/09 00:58:23;;;;;;;9.47;6.70;;;;;;;3.71;72.60;100913.75;4956677;28;20182;-69
2021/04/09 01:00:50;;;;;;;9.80;7.47;;;;;;;3.83;71.19;100912.78;4940080;28;20222;-69
2021/04/09 01:03:19;;;;;;;8.63;6.80;;;;;;;3.88;71.70;100912.09;4955609;28;20190;-69
2021/04/09 01:05:44;;;;;;;7.57;6.07;;;;;;;3.88;70.25;100910.28;4964102;28;20214;-70
2021/04/09 01:08:12;;;;;;;7.10;6.23;;;;;;;3.77;70.79;100907.47;4972296;28;20262;-69
2021/04/09 01:10:37;;;;;;;9.00;6.67;;;;;;;3.82;71.73;100899.56;4971872;28;20233;-69
2021/04/09 01:13:05;;;;;;;7.97;6.67;;;;;;;3.68;72.50;100892.72;4971646;28;20256;-69
2021/04/09 01:15:30;;;;;;;8.47;6.07;;;;;;;3.82;71.48;100882.66;4955752;28;20637;-69
2021/04/09 01:18:26;;;;;;;8.73;6.77;;;;;;;3.80;71.23;100890.09;4972174;28;20206;-69
2021/04/09 01:21:17;;;;;;;8.40;6.17;;;;;;;3.70;72.00;100884.41;4971576;28;20249;-69
2021/04/09 01:24:05;;;;;;;7.43;6.10;;;;;;;3.69;71.53;100878.22;4972721;28;20260;-69
2021/04/09 01:26:54;;;;;;;7.10;6.07;;;;;;;3.73;71.39;100882.09;4955100;28;20230;-69
2021/04/09 01:29:57;;;;;;;9.17;6.43;;;;;;;3.58;72.54;100878.16;4955812;28;20218;-70
2021/04/09 01:32:28;;;;;;;7.83;6.73;;;;;;;3.55;73.04;100870.53;4954478;28;20234;-70
2021/04/09 01:34:56;;;;;;;8.23;5.83;;;;;;;3.51;72.76;100867.47;4938141;29;20199;-69
2021/04/09 01:37:27;;;;;;;9.27;6.20;;;;;;;3.49;73.71;100866.88;4921196;29;20231;-68
2021/04/09 01:40:05;;;;;;;10.33;6.23;;;;;;;3.56;72.19;100873.00;4920291;29;20195;-69
2021/04/09 01:42:31;;;;;;;8.00;6.33;;;;;;;3.52;72.92;100858.38;4950385;28;20221;-69
2021/04/09 01:45:02;;;;;;;7.73;6.90;;;;;;;3.66;72.33;100856.38;4937190;29;20653;-70
2021/04/09 01:47:30;;;;;;;6.73;6.00;;;;;;;3.60;73.25;100847.34;4920104;29;20350;-69
2021/04/09 01:50:02;;;;;;;7.50;6.13;;;;;;;3.59;72.88;100840.34;4920703;29;20222;-69
2021/04/09 01:52:32;;;;;;;7.63;5.90;;;;;;;3.73;73.22;100841.81;4935252;28;20252;-74
2021/04/09 01:54:58;;;;;;;7.33;5.97;;;;;;;3.65;73.19;100834.06;4919964;29;20183;-70
2021/04/09 01:57:24;;;;;;;7.13;5.67;;;;;;;3.74;72.75;100834.63;4919820;29;20721;-69
2021/04/09 01:59:50;;;;;;;8.87;6.37;;;;;;;3.64;72.81;100834.28;4936189;29;20560;-70
2021/04/09 02:02:18;;;;;;;7.00;5.80;;;;;;;3.82;71.89;100828.94;4935628;28;20226;-70
2021/04/09 02:04:44;;;;;;;6.77;5.90;;;;;;;3.50;73.97;100830.94;4941402;28;20191;-69
2021/04/09 02:07:13;;;;;;;9.50;5.97;;;;;;;3.70;72.52;100826.19;4971838;28;20708;-68
2021/04/09 02:09:40;;;;;;;7.77;5.70;;;;;;;3.66;71.86;100811.53;4971383;28;20237;-70
2021/04/09 02:12:07;;;;;;;8.40;5.77;;;;;;;3.67;72.54;100818.56;4953644;28;20237;-69
2021/04/09 02:14:32;;;;;;;8.83;5.93;;;;;;;3.63;72.34;100805.81;4971314;28;20178;-69
2021/04/09 02:16:58;;;;;;;7.87;5.50;;;;;;;3.54;72.39;100794.53;4954276;28;20618;-69
2021/04/09 02:19:24;;;;;;;6.53;5.90;;;;;;;3.31;74.24;100798.09;4970891;28;20203;-70
2021/04/09 02:21:50;;;;;;;8.07;5.73;;;;;;;3.32;74.72;100799.75;4957838;28;20214;-71
2021/04/09 02:24:18;;;;;;;7.70;5.40;;;;;;;3.56;73.36;100787.09;4962901;28;20186;-69
2021/04/09 02:26:44;;;;;;;8.80;6.00;;;;;;;3.41;73.49;100784.97;4954747;28;20316;-69
2021/04/09 02:29:12;;;;;;;7.20;5.70;;;;;;;3.46;73.20;100791.31;4954849;28;20337;-69
2021/04/09 02:31:39;;;;;;;7.50;5.50;;;;;;;3.49;72.76;100790.88;4954097;28;20257;-69
2021/04/09 02:34:07;;;;;;;8.37;5.67;;;;;;;3.49;73.37;100780.16;4955272;28;20825;-70
2021/04/09 02:36:33;;;;;;;6.83;5.50;;;;;;;3.47;73.02;100771.50;4973112;28;20236;-70
2021/04/09 02:39:09;;;;;;;7.90;5.80;;;;;;;3.42;73.65;100771.34;4975828;28;20178;-71
2021/04/09 02:41:36;;;;;;;7.93;5.40;;;;;;;3.18;75.43;100768.72;4940017;28;20226;-70
2021/04/09 02:44:02;;;;;;;9.80;5.10;;;;;;;3.33;74.58;100774.56;4953732;28;20186;-70
2021/04/09 02:46:31;;;;;;;7.33;5.43;;;;;;;3.30;75.04;100769.66;4969850;28;20237;-70
2021/04/09 02:49:00;;;;;;;6.47;5.30;;;;;;;3.43;74.59;100758.78;4954635;28;20214;-69
2021/04/09 02:51:25;;;;;;;8.30;5.70;;;;;;;3.19;75.61;100748.91;4937931;28;20735;-70
2021/04/09 02:53:51;;;;;;;10.00;6.30;;;;;;;3.25;76.52;100750.69;4953549;28;20198;-69
2021/04/09 02:56:17;;;;;;;7.90;5.90;;;;;;;3.39;75.58;100742.28;4970092;28;20240;-69
2021/04/09 02:58:42;;;;;;;7.57;5.17;;;;;;;3.16;76.63;100741.31;4970287;28;20277;-70
2021/04/09 03:01:08;;;;;;;7.13;5.67;;;;;;;3.20;76.92;100742.50;4953726;28;20710;-70
2021/04/09 03:03:39;;;;;;;8.07;5.57;;;;;;;3.17;77.02;100737.59;4953217;28;20190;-69
2021/04/09 03:06:09;;;;;;;7.27;5.30;;;;;;;3.11;77.69;100733.09;4969887;28;20225;-69
2021/04/09 03:08:35;;;;;;;7.57;5.90;;;;;;;3.02;76.68;100723.69;4954117;28;20214;-70
2021/04/09 03:11:02;;;;;;;9.37;5.93;;;;;;;3.10;77.69;100721.53;4970230;28;20227;-69
2021/04/09 03:13:28;;;;;;;9.00;5.97;;;;;;;3.10;77.57;100718.06;4965678;28;20213;-70
2021/04/09 03:15:58;;;;;;;10.60;5.60;;;;;;;3.03;77.97;100711.94;4945075;28;20230;-69
2021/04/09 03:18:24;;;;;;;8.23;6.37;;;;;;;3.03;77.91;100709.25;4970367;28;20609;-69
2021/04/09 03:20:50;;;;;;;6.70;5.60;;;;;;;2.97;78.84;100694.06;4953486;28;20730;-69
2021/04/09 03:23:15;;;;;;;7.63;5.47;;;;;;;3.03;78.51;100693.16;4953456;28;20194;-69
2021/04/09 03:25:41;;;;;;;8.20;5.40;;;;;;;3.00;78.72;100696.28;4953787;28;20226;-70
2021/04/09 03:28:07;;;;;;;8.10;6.00;;;;;;;3.14;77.63;100695.09;4969738;28;20206;-70
2021/04/09 03:30:32;;;;;;;10.43;5.40;;;;;;;3.11;77.50;100690.16;4970373;28;20218;-68
2021/04/09 03:33:00;;;;;;;8.73;5.70;;;;;;;3.00;78.40;100682.88;4946897;28;20201;-69
2021/04/09 03:35:33;;;;;;;7.67;5.83;;;;;;;3.09;78.54;100682.34;4968889;28;20218;-69
2021/04/09 03:38:03;;;;;;;8.93;5.63;;;;;;;3.11;77.76;100680.28;4969281;28;20264;-70
2021/04/09 03:40:32;;;;;;;8.17;6.10;;;;;;;3.19;77.20;100681.84;4952832;28;20242;-69
2021/04/09 03:43:00;;;;;;;6.33;4.93;;;;;;;3.13;78.15;100685.41;4954527;28;20687;-69
2021/04/09 03:45:30;;;;;;;9.17;5.80;;;;;;;3.16;78.29;100668.88;4968645;28;20240;-69
2021/04/09 03:47:56;;;;;;;6.40;5.50;;;;;;;3.18;78.09;100669.47;4927126;29;20230;-73
2021/04/09 03:50:21;;;;;;;7.07;5.53;;;;;;;3.18;78.04;100664.09;4969476;28;20206;-69
2021/04/09 03:52:49;;;;;;;8.33;5.47;;;;;;;3.07;78.58;100654.09;4952736;28;20198;-69
2021/04/09 03:55:15;;;;;;;7.43;5.60;;;;;;;3.08;79.61;100663.81;4968171;28;20190;-70
2021/04/09 03:57:40;;;;;;;7.30;5.43;;;;;;;3.11;79.27;100657.97;4936396;28;20560;-70
2021/04/09 04:00:06;;;;;;;8.20;5.80;;;;;;;3.03;79.47;100644.88;4953159;28;20194;-69
2021/04/09 04:02:37;;;;;;;9.90;5.83;;;;;;;3.18;78.49;100653.34;4952552;28;20610;-69
2021/04/09 04:05:03;;;;;;;6.90;5.30;;;;;;;3.06;79.68;100649.81;4954556;28;20277;-69
2021/04/09 04:07:28;;;;;;;9.67;5.80;;;;;;;3.06;79.91;100645.25;4941456;28;20237;-69
2021/04/09 04:09:54;;;;;;;7.50;5.50;;;;;;;3.04;80.58;100641.16;4957991;28;20700;-70
2021/04/09 04:12:20;;;;;;;7.60;5.80;;;;;;;3.11;80.34;100648.09;4940665;28;20233;-70
2021/04/09 04:14:48;;;;;;;7.30;5.47;;;;;;;2.97;80.46;100650.31;4957608;28;20197;-71
2021/04/09 04:17:14;;;;;;;6.90;5.77;;;;;;;3.05;80.78;100648.16;4951197;28;20603;-70
2021/04/09 04:19:40;;;;;;;9.57;5.57;;;;;;;3.00;80.21;100633.78;4962742;28;20193;-69
2021/04/09 04:22:08;;;;;;;9.70;6.30;;;;;;;3.09;79.97;100641.28;4972663;28;20234;-70
2021/04/09 04:24:33;;;;;;;8.63;5.43;;;;;;;3.01;80.88;100625.50;4965117;28;20201;-70
2021/04/09 04:26:59;;;;;;;9.20;5.80;;;;;;;2.84;81.81;100635.19;4957332;28;20245;-69
2021/04/09 04:29:24;;;;;;;7.53;5.40;;;;;;;2.81;82.37;100630.28;4960068;28;20238;-69
2021/04/09 04:31:50;;;;;;;8.00;5.47;;;;;;;2.80;82.77;100623.28;4957185;28;20230;-69
2021/04/09 04:34:16;;;;;;;8.57;6.43;;;;;;;2.85;82.68;100628.78;4974211;28;20189;-70
2021/04/09 04:36:41;;;;;;;19.10;13.63;;;;;;;2.79;83.78;100618.16;4968371;28;20226;-70
2021/04/09 04:39:07;;;;;;;9.60;7.20;;;;;;;2.83;82.69;100609.41;4974125;28;20186;-70
2021/04/09 04:41:35;;;;;;;7.87;5.63;;;;;;;2.95;83.55;100612.16;4972549;28;20218;-68
2021/04/09 04:44:01;;;;;;;9.37;6.17;;;;;;;2.77;83.70;100615.69;4956684;28;20676;-69
2021/04/09 04:46:26;;;;;;;10.40;5.93;;;;;;;2.77;84.32;100618.34;4940814;28;20225;-70
2021/04/09 04:48:52;;;;;;;8.90;5.80;;;;;;;2.99;83.86;100616.06;4956929;28;20225;-70
2021/04/09 04:51:18;;;;;;;7.33;6.13;;;;;;;2.82;83.69;100609.63;4939940;28;20233;-68
2021/04/09 04:53:47;;;;;;;7.50;6.07;;;;;;;2.89;84.11;100605.84;4954484;28;20580;-68
2021/04/09 04:56:12;;;;;;;8.70;5.73;;;;;;;3.00;84.40;100605.09;4956009;28;20257;-70
2021/04/09 04:58:38;;;;;;;7.57;5.40;;;;;;;3.02;83.04;100608.34;4940163;28;20193;-68
2021/04/09 05:01:04;;;;;;;7.97;5.43;;;;;;;2.90;84.30;100609.34;4956193;28;20222;-69
2021/04/09 05:03:32;;;;;;;6.97;5.50;;;;;;;3.15;82.59;100602.81;4956760;28;20664;-69
2021/04/09 05:05:58;;;;;;;7.13;5.50;;;;;;;3.07;83.47;100608.50;4973163;28;20226;-70
2021/04/09 05:08:23;;;;;;;18.57;13.57;;;;;;;3.29;83.16;100609.66;4955745;28;20758;-70
2021/04/09 05:10:49;;;;;;;12.27;8.73;;;;;;;3.26;83.08;100596.69;4972885;28;20743;-69
2021/04/09 05:13:14;;;;;;;8.73;6.40;;;;;;;3.25;82.40;100606.63;4954107;28;20687;-70
2021/04/09 05:15:40;;;;;;;7.33;5.40;;;;;;;3.43;81.04;100604.72;4955046;28;20211;-71
2021/04/09 05:18:08;;;;;;;8.53;5.73;;;;;;;3.46;81.96;100604.28;4973764;28;20213;-70
2021/04/09 05:20:33;;;;;;;8.13;5.77;;;;;;;3.65;80.28;100597.78;4955900;28;20241;-70
2021/04/09 05:22:59;;;;;;;8.97;5.77;;;;;;;3.80;80.08;100600.88;4939629;28;20241;-69
2021/04/09 05:25:27;;;;;;;7.47;5.67;;;;;;;3.91;79.36;100595.50;4955548;28;20249;-69
2021/04/09 05:27:53;;;;;;;6.60;5.33;;;;;;;3.99;79.47;100600.56;4972568;28;20909;-69
2021/04/09 05:30:19;;;;;;;7.63;5.47;;;;;;;4.02;79.20;100593.91;4971450;28;20218;-70
2021/04/09 05:32:48;;;;;;;9.33;5.60;;;;;;;4.04;78.37;100591.78;4948120;28;20199;-69
2021/04/09 05:35:16;;;;;;;8.23;5.83;;;;;;;4.17;77.86;100602.31;4947101;28;20625;-69
2021/04/09 05:37:42;;;;;;;8.43;5.80;;;;;;;4.27;76.98;100598.84;4968606;28;20257;-69
2021/04/09 05:40:08;;;;;;;8.13;5.43;;;;;;;4.35;77.16;100593.09;4968576;28;20653;-68
2021/04/09 05:42:34;;;;;;;7.33;5.53;;;;;;;4.49;77.06;100602.56;4953073;29;20662;-68
2021/04/09 05:45:00;;;;;;;7.87;5.23;;;;;;;4.57;76.33;100577.19;4952919;29;20194;-69
2021/04/09 05:47:28;;;;;;;8.23;5.47;;;;;;;4.56;76.30;100580.94;4952029;28;20281;-69
2021/04/09 05:49:54;;;;;;;8.17;5.60;;;;;;;4.80;75.37;100586.88;4943900;28;20212;-69
2021/04/09 05:52:19;;;;;;;8.57;5.73;;;;;;;4.84;75.03;100593.41;4968036;28;20219;-69
2021/04/09 05:54:47;;;;;;;8.97;5.23;;;;;;;4.94;74.42;100584.72;4949601;28;20205;-69
2021/04/09 05:57:13;;;;;;;8.57;5.43;;;;;;;4.91;74.08;100585.19;4935934;28;20227;-70
2021/04/09 05:59:38;;;;;;;7.50;5.27;;;;;;;4.99;74.54;100589.16;4920476;29;20620;-70
2021/04/09 06:02:04;;;;;;;8.43;5.50;;;;;;;5.00;73.91;100584.63;4952674;29;20226;-70
2021/04/09 06:04:30;;;;;;;8.00;5.43;;;;;;;5.01;73.47;100581.66;4936380;29;20187;-71
2021/04/09 06:06:56;;;;;;;7.33;5.60;;;;;;;5.22;73.63;100572.13;4935584;29;20732;-70
2021/04/09 06:09:22;;;;;;;6.17;4.97;;;;;;;5.33;72.26;100577.47;4936713;29;20219;-73
2021/04/09 06:11:48;;;;;;;7.10;5.07;;;;;;;5.25;72.79;100582.41;4935409;29;20230;-70
2021/04/09 06:14:15;;;;;;;7.50;5.67;;;;;;;5.37;72.27;100573.25;4937696;28;20218;-69
2021/04/09 06:16:43;;;;;;;7.33;5.20;;;;;;;5.45;72.13;100578.22;4989659;28;20240;-69
2021/04/09 06:19:11;;;;;;;6.60;5.07;;;;;;;5.58;71.45;100584.13;4992234;28;20190;-70
2021/04/09 06:21:37;;;;;;;7.50;5.00;;;;;;;5.59;72.15;100590.34;4975364;28;20721;-70
2021/04/09 06:24:06;;;;;;;7.67;5.37;;;;;;;5.61;72.55;100589.03;4985921;28;20201;-68
2021/04/09 06:26:34;;;;;;;8.80;5.70;;;;;;;5.49;72.64;100595.53;4973264;28;20218;-68
2021/04/09 06:29:02;;;;;;;11.00;5.83;;;;;;;5.92;71.01;100583.16;4940702;28;20638;-70
2021/04/09 06:31:30;;;;;;;7.47;5.30;;;;;;;5.99;69.89;100581.94;4972800;28;20285;-70
2021/04/09 06:33:56;;;;;;;7.53;5.63;;;;;;;6.06;70.45;100587.97;4956491;28;20212;-68
2021/04/09 06:36:22;;;;;;;7.67;5.40;;;;;;;5.95;70.81;100580.81;4957955;28;20244;-70
2021/04/09 06:38:47;;;;;;;8.27;5.50;;;;;;;5.97;70.82;100586.75;4957837;28;20683;-70
2021/04/09 06:41:19;;;;;;;8.20;5.80;;;;;;;5.88;71.61;100585.53;4955511;28;20806;-69
2021/04/09 06:43:45;;;;;;;6.20;4.93;;;;;;;6.22;68.96;100576.38;4938554;28;20191;-70
2021/04/09 06:46:11;;;;;;;8.00;5.20;;;;;;;6.11;70.05;100576.47;4970076;28;20369;-70
2021/04/09 06:48:37;;;;;;;7.00;5.40;;;;;;;6.11;69.25;100581.84;4971566;28;20225;-69
2021/04/09 06:51:05;;;;;;;8.57;5.43;;;;;;;6.05;70.38;100583.66;4937794;28;20226;-69
2021/04/09 06:53:33;;;;;;;8.20;5.70;;;;;;;6.13;69.44;100586.78;4953806;28;20277;-70
2021/04/09 06:55:59;;;;;;;8.97;5.23;;;;;;;6.17;69.75;100578.97;4969689;28;20883;-70
2021/04/09 06:58:27;;;;;;;7.50;5.70;;;;;;;6.20;70.13;100579.31;4938855;28;20193;-70
2021/04/09 07:00:57;;;;;;;10.47;6.10;;;;;;;6.35;69.12;100579.53;4938075;28;20229;-71
2021/04/09 07:03:25;;;;;;;8.07;5.70;;;;;;;6.49;68.37;100571.94;4953193;28;20194;-70
2021/04/09 07:05:51;;;;;;;9.90;5.67;;;;;;;6.54;67.67;100565.56;4937928;28;20253;-70
2021/04/09 07:08:19;;;;;;;9.17;5.67;;;;;;;6.56;68.89;100576.91;4970498;28;20563;-71
2021/04/09 07:10:47;;;;;;;10.07;6.20;;;;;;;6.54;68.31;100564.75;4969932;28;20226;-70
2021/04/09 07:13:13;;;;;;;9.43;5.90;;;;;;;6.52;68.37;100570.38;4953707;28;20632;-71
2021/04/09 07:15:43;;;;;;;7.90;5.67;;;;;;;6.61;68.76;100563.50;4953485;28;20230;-71
2021/04/09 07:18:11;;;;;;;9.77;6.13;;;;;;;6.74;68.12;100549.66;4970501;28;20842;-71
2021/04/09 07:20:37;;;;;;;8.63;5.93;;;;;;;6.60;68.97;100559.16;4953835;28;20689;-70
2021/04/09 07:23:04;;;;;;;9.87;5.93;;;;;;;6.76;68.71;100557.47;4953621;28;20179;-69
2021/04/09 07:25:34;;;;;;;8.30;5.90;;;;;;;6.58;68.43;100549.69;4950931;28;20285;-71
2021/04/09 07:28:10;;;;;;;8.90;6.03;;;;;;;6.64;68.99;100546.78;4938448;28;20206;-72
2021/04/09 07:30:36;;;;;;;9.10;6.13;;;;;;;6.74;68.43;100541.56;4971121;28;20229;-70
2021/04/09 07:33:03;;;;;;;8.83;6.60;;;;;;;6.85;69.69;100534.38;4953382;28;20580;-70
2021/04/09 07:35:46;;;;;;;10.20;5.53;;;;;;;7.14;67.20;100536.63;4952911;28;20707;-70
2021/04/09 07:38:21;;;;;;;9.53;5.80;;;;;;;7.07;67.26;100533.28;4953213;28;20324;-73
2021/04/09 07:41:07;;;;;;;9.23;5.80;;;;;;;7.17;66.94;100523.44;4977172;28;20229;-73
2021/04/09 07:43:34;;;;;;;9.00;6.07;;;;;;;7.47;67.62;100521.88;4957322;28;20732;-70
2021/04/09 07:46:01;;;;;;;8.83;5.90;;;;;;;7.29;66.14;100526.81;4976433;28;20221;-70
2021/04/09 07:48:33;;;;;;;8.40;5.67;;;;;;;7.20;66.57;100532.91;4959894;28;20696;-70
2021/04/09 07:51:02;;;;;;;7.10;5.80;;;;;;;7.45;66.55;100523.19;4991240;28;20682;-71
2021/04/09 07:53:29;;;;;;;9.13;6.33;;;;;;;7.76;65.07;100521.31;4989040;28;20182;-70
2021/04/09 07:56:06;;;;;;;8.47;5.57;;;;;;;7.60;65.87;100532.28;4955983;28;20297;-70
2021/04/09 07:58:34;;;;;;;7.00;5.50;;;;;;;8.05;64.53;100534.28;4957643;28;20612;-70
2021/04/09 08:01:03;;;;;;;11.67;6.23;;;;;;;8.13;63.24;100533.84;4973835;28;20716;-70
2021/04/09 08:03:29;;;;;;;9.00;5.77;;;;;;;8.21;64.05;100527.94;4973413;28;20186;-69
2021/04/09 08:06:07;;;;;;;8.80;5.93;;;;;;;8.62;63.06;100529.81;4974216;28;20240;-69
2021/04/09 08:08:34;;;;;;;9.30;5.90;;;;;;;8.67;62.41;100527.16;4955974;28;20305;-71
2021/04/09 08:11:23;;;;;;;8.43;5.97;;;;;;;8.96;61.12;100530.00;4957073;28;20757;-70
2021/04/09 08:14:01;;;;;;;8.53;5.90;;;;;;;9.01;60.98;100530.03;4973083;28;20262;-70
2021/04/09 08:16:27;;;;;;;10.40;5.97;;;;;;;8.83;62.17;100527.78;4956836;28;20218;-71
2021/04/09 08:19:07;;;;;;;8.70;5.23;;;;;;;9.05;60.56;100522.19;4972935;28;20190;-70
2021/04/09 08:21:37;;;;;;;8.13;5.70;;;;;;;9.06;61.05;100532.72;4954634;28;20236;-71
2021/04/09 08:24:06;;;;;;;6.37;5.40;;;;;;;9.07;61.07;100528.97;4956706;28;20198;-70
2021/04/09 08:26:32;;;;;;;8.57;5.70;;;;;;;8.76;61.49;100534.50;4955913;28;20297;-71
2021/04/09 08:28:57;;;;;;;7.63;5.40;;;;;;;8.76;62.09;100522.88;4956962;28;20268;-70
2021/04/09 08:31:23;;;;;;;8.13;5.83;;;;;;;8.89;61.61;100532.13;4957152;28;20245;-70
2021/04/09 08:33:49;;;;;;;9.23;5.77;;;;;;;8.91;62.54;100529.16;4972598;28;20335;-71
2021/04/09 08:36:17;;;;;;;8.47;5.93;;;;;;;8.81;62.96;100523.72;4957088;28;20238;-70
2021/04/09 08:38:43;;;;;;;7.13;5.87;;;;;;;8.73;64.08;100528.81;4956246;28;20189;-70
2021/04/09 08:41:12;;;;;;;9.47;5.50;;;;;;;8.88;62.66;100518.84;4956331;28;20813;-71
2021/04/09 08:43:38;;;;;;;7.13;5.80;;;;;;;8.96;63.62;100523.78;4940160;28;20192;-70
2021/04/09 08:46:05;;;;;;;8.70;5.80;;;;;;;9.37;62.00;100524.44;4955984;28;20229;-70
2021/04/09 08:48:33;;;;;;;8.07;5.50;;;;;;;9.23;61.20;100511.69;4972803;28;20194;-71
2021/04/09 08:50:59;;;;;;;9.27;5.47;;;;;;;9.00;61.96;100525.66;4955321;28;20233;-71
2021/04/09 08:53:25;;;;;;;8.67;5.60;;;;;;;9.18;61.75;100508.94;4956033;28;20657;-69
2021/04/09 08:55:51;;;;;;;9.67;5.90;;;;;;;9.34;63.22;100513.31;4955069;28;20308;-71
2021/04/09 08:58:17;;;;;;;8.20;5.60;;;;;;;9.36;63.50;100508.47;4973976;28;20210;-70
2021/04/09 09:00:46;;;;;;;8.13;5.60;;;;;;;9.45;61.88;100510.38;4971969;28;20277;-70
2021/04/09 09:03:30;;;;;;;10.27;5.80;;;;;;;9.44;62.05;100516.06;4936012;29;20191;-71
2021/04/09 09:06:06;;;;;;;7.07;5.30;;;;;;;9.31;63.06;100519.28;4934061;28;20226;-70
2021/04/09 09:08:41;;;;;;;8.10;5.27;;;;;;;9.72;61.11;100505.50;4969958;28;20186;-69
2021/04/09 09:11:09;;;;;;;9.43;5.70;;;;;;;9.98;62.02;100497.13;4978123;28;20227;-69
2021/04/09 09:13:41;;;;;;;8.37;5.60;;;;;;;10.07;61.18;100509.06;4939349;28;20174;-70
2021/04/09 09:16:19;;;;;;;9.40;6.00;;;;;;;10.05;60.39;100500.38;4972796;28;20230;-71
2021/04/09 09:19:12;;;;;;;6.97;5.30;;;;;;;9.99;60.04;100512.34;4972168;28;20178;-70
2021/04/09 09:21:38;;;;;;;7.03;5.13;;;;;;;10.22;61.05;100506.34;4969834;28;20271;-69
2021/04/09 09:24:05;;;;;;;7.87;5.23;;;;;;;10.24;61.06;100502.28;4973335;28;20197;-70
2021/04/09 09:26:35;;;;;;;7.10;5.33;;;;;;;10.45;60.92;100501.94;4973381;28;20249;-70
2021/04/09 09:29:14;;;;;;;7.17;5.60;;;;;;;10.19;61.20;100507.72;4941075;28;20692;-69
2021/04/09 09:31:41;;;;;;;8.70;6.70;;;;;;;10.17;62.16;100498.22;4974022;28;20225;-70
2021/04/09 09:34:24;;;;;;;7.90;5.50;;;;;;;10.17;62.20;100499.03;4973939;28;20190;-70
2021/04/09 09:37:02;;;;;;;9.33;5.80;;;;;;;10.31;62.05;100501.97;4973599;28;20230;-70
2021/04/09 09:39:53;;;;;;;10.37;5.97;;;;;;;10.45;63.07;100499.22;4956571;28;20288;-69
2021/04/09 09:42:21;;;;;;;7.57;4.97;;;;;;;10.53;61.06;100492.44;4971182;28;20226;-70
2021/04/09 09:44:48;;;;;;;7.80;5.57;;;;;;;10.63;62.67;100493.22;4973442;28;20202;-69
2021/04/09 09:47:14;;;;;;;7.37;4.80;;;;;;;10.94;60.62;100484.69;4971519;28;20672;-69
2021/04/09 09:50:04;;;;;;;8.77;5.77;;;;;;;11.26;60.54;100494.03;4963734;28;20211;-70
2021/04/09 09:53:06;;;;;;;8.00;5.40;;;;;;;10.92;59.02;100477.91;4972135;28;20245;-70
2021/04/09 09:55:34;;;;;;;6.73;4.53;;;;;;;10.93;60.24;100484.94;4946816;28;20233;-69
2021/04/09 09:58:22;;;;;;;9.33;4.90;;;;;;;10.74;59.79;100490.19;4971961;28;20218;-71
2021/04/09 10:01:01;;;;;;;8.97;5.50;;;;;;;10.91;59.64;100495.28;4955728;28;20254;-69
2021/04/09 10:03:36;;;;;;;6.47;4.40;;;;;;;10.84;59.13;100492.03;4938024;28;20718;-69
2021/04/09 10:06:14;;;;;;;7.43;5.17;;;;;;;10.94;59.51;100500.97;4970824;28;20694;-69
2021/04/09 10:08:43;;;;;;;8.00;4.87;;;;;;;10.99;58.62;100494.69;4972605;28;20289;-70
2021/04/09 10:11:17;;;;;;;5.67;4.43;;;;;;;10.98;58.86;100491.19;4955042;28;20236;-70
2021/04/09 10:13:43;;;;;;;4.73;4.27;;;;;;;10.88;58.83;100474.94;4954669;28;20249;-70
2021/04/09 10:16:09;;;;;;;6.93;4.93;;;;;;;11.08;59.48;100479.44;4954752;28;20260;-69
2021/04/09 10:18:38;;;;;;;6.33;4.87;;;;;;;11.09;58.91;100483.81;4971023;28;20222;-70
2021/04/09 10:21:30;;;;;;;6.90;5.30;;;;;;;11.24;59.03;100479.88;4962590;28;20222;-70
2021/04/09 10:24:12;;;;;;;5.73;4.70;;;;;;;11.48;57.82;100480.06;4967237;28;20213;-69
2021/04/09 10:26:53;;;;;;;6.47;4.63;;;;;;;11.57;57.54;100473.72;4970466;28;20222;-69
2021/04/09 10:29:27;;;;;;;5.67;4.60;;;;;;;11.68;57.54;100475.28;4952077;28;20225;-71
2021/04/09 10:31:54;;;;;;;5.37;4.30;;;;;;;12.17;56.20;100474.84;4950313;28;20242;-71
2021/04/09 10:34:24;;;;;;;7.27;4.77;;;;;;;12.23;55.15;100473.69;4951850;28;20215;-70
2021/04/09 10:36:49;;;;;;;5.87;4.60;;;;;;;11.93;56.92;100484.88;4954523;28;20313;-71
2021/04/09 10:39:17;;;;;;;5.60;4.40;;;;;;;11.77;56.90;100479.03;4971150;28;20269;-70
2021/04/09 10:41:45;;;;;;;7.47;5.20;;;;;;;11.81;57.53;100471.91;4952870;28;20221;-69
2021/04/09 10:44:19;;;;;;;6.40;4.70;;;;;;;12.03;57.82;100479.34;4970899;28;20202;-70
2021/04/09 10:46:54;;;;;;;7.83;5.30;;;;;;;12.37;57.11;100475.44;4970269;28;20229;-70
2021/04/09 10:49:26;;;;;;;6.93;5.10;;;;;;;12.36;57.07;100473.84;4951679;28;20233;-70
2021/04/09 10:51:57;;;;;;;7.20;5.20;;;;;;;12.53;57.22;100478.84;4976264;28;20214;-69
2021/04/09 10:54:27;;;;;;;6.10;4.90;;;;;;;12.52;56.34;100471.75;4954672;28;20286;-70
2021/04/09 10:57:00;;;;;;;6.83;4.40;;;;;;;12.62;56.01;100477.91;4970380;28;20722;-69
2021/04/09 10:59:30;;;;;;;4.47;3.67;;;;;;;12.89;53.71;100472.72;4938762;28;20182;-70
2021/04/09 11:01:56;;;;;;;6.63;4.17;;;;;;;12.58;54.23;100467.88;4970884;28;20226;-70
2021/04/09 11:04:24;;;;;;;4.73;3.63;;;;;;;12.54;53.95;100469.56;4951991;28;20179;-70
2021/04/09 11:06:53;;;;;;;4.47;3.80;;;;;;;12.29;54.47;100469.84;4948263;28;20233;-69
2021/04/09 11:09:19;;;;;;;7.03;4.23;;;;;;;12.16;55.43;100472.41;4955866;28;20222;-71
2021/04/09 11:11:45;;;;;;;7.20;4.07;;;;;;;12.32;54.41;100469.25;4953567;28;20729;-70
2021/04/09 11:14:14;;;;;;;6.23;3.93;;;;;;;12.34;54.99;100486.09;4963575;28;20182;-69
2021/04/09 11:16:56;;;;;;;4.10;3.20;;;;;;;12.24;54.30;100464.44;4971727;28;20226;-69
2021/04/09 11:19:30;;;;;;;5.40;3.50;;;;;;;12.58;54.01;100465.97;4938097;28;20189;-68
2021/04/09 11:21:58;;;;;;;4.17;3.60;;;;;;;12.68;52.79;100454.94;4952998;28;20544;-70
2021/04/09 11:24:42;;;;;;;5.67;3.67;;;;;;;12.60;54.10;100449.31;4951755;28;20204;-69
2021/04/09 11:27:19;;;;;;;6.47;4.00;;;;;;;13.08;52.42;100449.84;4966769;28;20317;-70
2021/04/09 11:29:45;;;;;;;6.40;3.87;;;;;;;12.89;52.77;100440.00;4943599;28;20213;-69
2021/04/09 11:32:22;;;;;;;4.90;3.73;;;;;;;12.92;54.03;100451.13;4936671;28;20632;-70
2021/04/09 11:34:51;;;;;;;7.63;4.40;;;;;;;12.64;54.71;100443.00;4964402;28;20277;-68
2021/04/09 11:37:21;;;;;;;5.87;3.80;;;;;;;13.21;54.40;100440.94;4957071;28;20230;-69
2021/04/09 11:39:54;;;;;;;4.30;3.50;;;;;;;13.25;52.89;100450.94;4967153;28;20193;-69
2021/04/09 11:42:26;;;;;;;6.30;3.10;;;;;;;12.67;54.26;100455.25;4959954;28;20218;-69